Time;durP1;ratioP1;P1;durP2;ratioP2;P2;SDS_P1;SDS_P2;PMS_P1;PMS_P2;Temp;Humidity;BMP_temperature;BMP_pressure;BME280_temperature;BME280_humidity;BME280_pressure;Samples;Min_cycle;Max_cycle;Signal;HPM_P1;HPM_P2
2023/08/13 00:01:04;;;;;;;13.40;7.70;;;17.70;94.40;;;;;;5051599;28;20381;-75
2023/08/13 00:03:30;;;;;;;16.25;7.75;;;17.80;90.00;;;;;;5051465;28;20377;-74
2023/08/13 00:05:55;;;;;;;11.87;7.70;;;17.70;91.80;;;;;;5051655;28;20393;-75
2023/08/13 00:08:21;;;;;;;14.90;8.20;;;17.50;93.60;;;;;;5051401;28;20415;-74
2023/08/13 00:10:46;;;;;;;11.65;7.25;;;17.40;94.70;;;;;;5052413;28;20411;-75
2023/08/13 00:13:13;;;;;;;14.97;7.83;;;17.40;96.70;;;;;;5051664;28;20382;-74
2023/08/13 00:15:38;;;;;;;14.40;7.70;;;17.50;94.60;;;;;;5052409;28;20458;-74
2023/08/13 00:18:04;;;;;;;14.70;7.80;;;17.50;94.50;;;;;;5051859;28;20805;-75
2023/08/13 00:20:30;;;;;;;15.13;7.40;;;17.50;92.10;;;;;;5052449;28;20381;-75
2023/08/13 00:22:56;;;;;;;16.65;7.90;;;17.40;93.70;;;;;;5051619;28;20435;-75
2023/08/13 00:25:21;;;;;;;13.73;6.63;;;17.30;95.10;;;;;;5052507;28;20386;-75
2023/08/13 00:27:47;;;;;;;14.48;7.13;;;17.20;97.30;;;;;;5053282;28;20378;-75
2023/08/13 00:30:12;;;;;;;12.40;7.10;;;17.30;98.60;;;;;;5054837;28;20396;-75
2023/08/13 00:32:38;;;;;;;13.13;7.13;;;17.20;99.60;;;;;;5055430;28;20377;-75
2023/08/13 00:35:05;;;;;;;12.23;7.03;;;17.40;97.60;;;;;;5055256;28;20381;-75
2023/08/13 00:37:30;;;;;;;12.82;6.88;;;17.40;96.70;;;;;;5054111;28;20409;-75
2023/08/13 00:39:56;;;;;;;16.07;6.43;;;17.50;91.90;;;;;;5053900;28;20866;-75
2023/08/13 00:42:21;;;;;;;16.10;6.00;;;17.50;91.30;;;;;;5051734;28;20384;-75
2023/08/13 00:44:47;;;;;;;13.57;6.20;;;17.70;78.10;;;;;;5051859;28;20373;-75
2023/08/13 00:47:12;;;;;;;16.93;6.00;;;17.80;71.50;;;;;;5052018;28;20385;-75
2023/08/13 00:49:38;;;;;;;11.55;5.80;;;17.80;75.90;;;;;;5052154;28;20424;-74
2023/08/13 00:52:05;;;;;;;12.32;6.03;;;17.90;77.70;;;;;;5051905;28;20436;-75
2023/08/13 00:54:31;;;;;;;9.40;4.90;;;18.10;71.10;;;;;;5051712;28;20747;-74
2023/08/13 00:56:56;;;;;;;13.17;5.50;;;18.10;67.50;;;;;;5053670;28;20401;-74
2023/08/13 00:59:23;;;;;;;11.80;5.07;;;18.20;65.40;;;;;;5055116;28;20392;-73
2023/08/13 01:01:49;;;;;;;12.05;5.65;;;18.30;60.80;;;;;;5054456;28;20405;-75
2023/08/13 01:04:14;;;;;;;13.57;5.20;;;18.20;63.80;;;;;;5053142;28;20435;-72
2023/08/13 01:07:06;;;;;;;11.20;4.80;;;18.30;55.30;;;;;;5052036;28;20381;-73
2023/08/13 01:10:00;;;;;;;14.43;4.78;;;18.50;55.40;;;;;;5033979;28;20567;-74
2023/08/13 01:13:02;;;;;;;11.90;4.18;;;18.40;54.40;;;;;;5033819;28;20419;-74
2023/08/13 01:15:32;;;;;;;12.30;4.60;;;18.50;54.20;;;;;;5051857;28;20389;-75
2023/08/13 01:18:01;;;;;;;12.73;3.50;;;18.60;53.00;;;;;;5052664;28;20417;-75
2023/08/13 01:20:31;;;;;;;11.63;4.18;;;18.60;49.50;;;;;;5051515;28;20382;-74
2023/08/13 01:22:57;;;;;;;14.03;3.70;;;18.60;49.40;;;;;;5051497;28;20476;-74
2023/08/13 01:25:25;;;;;;;8.97;3.97;;;18.60;50.10;;;;;;5052162;28;20445;-74
2023/08/13 01:28:13;;;;;;;12.50;4.40;;;18.50;50.20;;;;;;5034183;28;20474;-75
2023/08/13 01:30:44;;;;;;;11.32;3.97;;;18.50;51.10;;;;;;5037621;28;20761;-75
2023/08/13 01:33:14;;;;;;;13.13;3.60;;;18.50;50.10;;;;;;5056092;28;20385;-75
2023/08/13 01:35:43;;;;;;;14.80;3.90;;;18.50;48.80;;;;;;5056670;28;20457;-73
2023/08/13 01:38:10;;;;;;;15.88;4.40;;;18.50;48.80;;;;;;5056681;28;20944;-75
2023/08/13 01:40:35;;;;;;;9.98;3.78;;;18.50;50.40;;;;;;5055499;28;20765;-74
2023/08/13 01:43:01;;;;;;;12.10;3.90;;;18.50;47.60;;;;;;5055645;28;20385;-73
2023/08/13 01:45:27;;;;;;;13.77;4.07;;;18.60;47.00;;;;;;5055807;28;20464;-73
2023/08/13 01:47:52;;;;;;;12.57;3.57;;;18.50;47.50;;;;;;5054358;28;20400;-74
2023/08/13 01:50:18;;;;;;;10.30;3.63;;;18.40;47.40;;;;;;5053960;28;20755;-75
2023/08/13 01:52:44;;;;;;;9.50;3.50;;;18.40;46.90;;;;;;5054112;28;20442;-73
2023/08/13 01:55:10;;;;;;;12.43;3.57;;;18.40;46.50;;;;;;5054025;28;20416;-74
2023/08/13 01:57:35;;;;;;;11.10;3.33;;;18.30;48.30;;;;;;5053786;28;20405;-73
2023/08/13 02:00:01;;;;;;;11.67;3.80;;;18.20;50.10;;;;;;5054044;28;20442;-74
2023/08/13 02:02:26;;;;;;;14.27;3.85;;;18.10;50.40;;;;;;5035775;28;20390;-73
2023/08/13 02:04:52;;;;;;;12.23;4.00;;;18.00;49.60;;;;;;5053655;28;20385;-73
2023/08/13 02:07:17;;;;;;;8.50;3.90;;;17.90;50.30;;;;;;5053941;28;20888;-73
2023/08/13 02:09:43;;;;;;;11.13;3.88;;;17.90;51.40;;;;;;5035825;28;20389;-74
2023/08/13 02:12:08;;;;;;;12.80;4.27;;;17.80;51.60;;;;;;5035485;28;20423;-74
2023/08/13 02:14:34;;;;;;;11.00;4.10;;;17.90;54.60;;;;;;5053385;28;20390;-73
2023/08/13 02:17:00;;;;;;;13.50;4.88;;;17.80;57.10;;;;;;5053392;28;20405;-74
2023/08/13 02:19:25;;;;;;;11.13;5.20;;;17.70;62.00;;;;;;5053401;28;20382;-74
2023/08/13 02:21:51;;;;;;;7.90;5.23;;;17.50;66.00;;;;;;5035353;28;20392;-72
2023/08/13 02:24:17;;;;;;;13.87;6.03;;;17.50;69.50;;;;;;5053418;28;20393;-74
2023/08/13 02:26:42;;;;;;;10.82;6.18;;;17.40;72.60;;;;;;5053465;28;20377;-73
2023/08/13 02:29:08;;;;;;;12.77;5.80;;;17.30;76.20;;;;;;5053372;28;20392;-75
2023/08/13 02:31:34;;;;;;;11.87;5.90;;;17.30;78.30;;;;;;5053175;28;20401;-74
2023/08/13 02:33:59;;;;;;;16.13;5.80;;;17.30;79.90;;;;;;5053404;28;20815;-75
2023/08/13 02:36:25;;;;;;;10.90;5.82;;;17.30;81.00;;;;;;5053123;28;20385;-74
2023/08/13 02:38:50;;;;;;;13.10;5.80;;;17.30;81.20;;;;;;5053451;28;20385;-75
2023/08/13 02:41:16;;;;;;;13.27;6.33;;;17.30;81.60;;;;;;5053299;28;20477;-74
2023/08/13 02:43:55;;;;;;;15.43;6.22;;;17.20;82.40;;;;;;5054556;28;20390;-73
2023/08/13 02:46:22;;;;;;;13.40;6.75;;;17.20;83.10;;;;;;5054665;28;20385;-73
2023/08/13 02:48:48;;;;;;;10.32;6.40;;;17.10;85.00;;;;;;5054935;28;20382;-74
2023/08/13 02:51:14;;;;;;;12.85;6.10;;;17.00;85.80;;;;;;5054249;28;20794;-73
2023/08/13 02:53:41;;;;;;;13.27;5.53;;;17.00;87.30;;;;;;5053647;28;20392;-75
2023/08/13 02:56:07;;;;;;;16.73;6.28;;;17.00;87.20;;;;;;5053106;28;20385;-74
2023/08/13 02:58:33;;;;;;;16.63;6.70;;;17.10;85.60;;;;;;5035153;28;20727;-74
2023/08/13 03:00:59;;;;;;;11.55;6.22;;;16.90;89.30;;;;;;5052890;28;20385;-73
2023/08/13 03:03:25;;;;;;;15.88;7.30;;;16.70;90.10;;;;;;5052652;28;20378;-74
2023/08/13 03:05:50;;;;;;;14.20;6.77;;;16.60;93.60;;;;;;5052451;28;20382;-73
2023/08/13 03:08:16;;;;;;;14.50;7.50;;;16.50;97.70;;;;;;5052557;28;20388;-74
2023/08/13 03:10:41;;;;;;;18.35;7.10;;;16.40;99.60;;;;;;5064051;22;20490;-70
2023/08/13 03:13:07;;;;;;;14.77;6.77;;;16.30;99.90;;;;;;5052348;28;20842;-71
2023/08/13 03:15:32;;;;;;;14.50;6.40;;;16.30;99.90;;;;;;5052407;28;20377;-70
2023/08/13 03:17:58;;;;;;;12.88;6.80;;;16.40;99.90;;;;;;5052396;28;20414;-71
2023/08/13 03:20:23;;;;;;;14.00;7.10;;;16.40;99.90;;;;;;5052353;28;20455;-70
2023/08/13 03:22:49;;;;;;;11.67;6.30;;;16.30;99.90;;;;;;5052249;28;20468;-71
2023/08/13 03:25:15;;;;;;;20.75;7.60;;;16.20;99.90;;;;;;5052273;28;20455;-71
2023/08/13 03:27:40;;;;;;;14.18;6.47;;;16.10;99.90;;;;;;5052157;28;20496;-69
2023/08/13 03:30:07;;;;;;;14.13;7.07;;;16.10;99.90;;;;;;5034987;28;20422;-71
2023/08/13 03:32:32;;;;;;;14.18;7.30;;;16.00;99.90;;;;;;5052762;28;20774;-71
2023/08/13 03:34:58;;;;;;;16.73;7.47;;;16.10;99.90;;;;;;5053689;28;20381;-70
2023/08/13 03:37:23;;;;;;;12.80;6.00;;;16.10;99.90;;;;;;5053395;28;20397;-71
2023/08/13 03:39:49;;;;;;;14.73;6.50;;;16.20;99.90;;;;;;5052827;28;20386;-69
2023/08/13 03:42:14;;;;;;;13.45;6.95;;;16.00;99.90;;;;;;5052281;28;20742;-71
2023/08/13 03:44:41;;;;;;;12.87;6.80;;;15.90;99.90;;;;;;5052382;28;20388;-71
2023/08/13 03:47:07;;;;;;;13.85;7.30;;;15.80;99.90;;;;;;5034284;28;20397;-70
2023/08/13 03:49:33;;;;;;;16.57;7.00;;;15.70;99.90;;;;;;5051986;28;20384;-72
2023/08/13 03:51:59;;;;;;;13.45;7.20;;;15.70;99.90;;;;;;5051581;28;20447;-69
2023/08/13 03:54:25;;;;;;;20.10;7.65;;;15.60;99.90;;;;;;5051678;28;20381;-71
2023/08/13 03:56:50;;;;;;;12.75;6.85;;;15.60;99.90;;;;;;5051656;28;20479;-70
2023/08/13 03:59:16;;;;;;;11.40;7.00;;;15.60;99.90;;;;;;5051597;28;20796;-74
2023/08/13 04:01:42;;;;;;;13.03;6.80;;;15.50;99.90;;;;;;5033409;28;20393;-70
2023/08/13 04:04:07;;;;;;;16.90;7.10;;;15.50;99.90;;;;;;5051483;28;20464;-71
2023/08/13 04:06:33;;;;;;;13.20;6.97;;;15.50;99.90;;;;;;5051396;28;20392;-71
2023/08/13 04:08:58;;;;;;;15.87;6.93;;;15.50;99.90;;;;;;5051345;28;20472;-71
2023/08/13 04:11:24;;;;;;;14.20;6.80;;;15.40;99.90;;;;;;5050846;28;20393;-71
2023/08/13 04:13:49;;;;;;;15.95;7.97;;;15.50;99.90;;;;;;5051226;28;20412;-71
2023/08/13 04:16:15;;;;;;;11.95;7.38;;;15.40;99.90;;;;;;5033301;28;20459;-70
2023/08/13 04:18:41;;;;;;;14.37;7.10;;;15.40;99.90;;;;;;5051334;28;20743;-71
2023/08/13 04:21:06;;;;;;;15.80;6.97;;;15.30;99.90;;;;;;5050897;28;20374;-71
2023/08/13 04:23:32;;;;;;;15.70;6.35;;;15.50;99.90;;;;;;5051147;28;20968;-70
2023/08/13 04:25:57;;;;;;;13.37;6.90;;;15.50;99.90;;;;;;5051309;28;20417;-71
2023/08/13 04:28:23;;;;;;;16.80;7.10;;;15.40;99.90;;;;;;5051036;28;20692;-71
2023/08/13 04:30:49;;;;;;;14.55;6.57;;;15.30;99.90;;;;;;5033227;28;20437;-71
2023/08/13 04:33:14;;;;;;;19.00;6.80;;;15.30;99.90;;;;;;5051083;28;20738;-71
2023/08/13 04:35:40;;;;;;;17.38;7.50;;;15.30;99.90;;;;;;5050934;28;20392;-70
2023/08/13 04:38:05;;;;;;;13.50;6.73;;;15.30;99.90;;;;;;5051062;28;20400;-72
2023/08/13 04:40:31;;;;;;;18.83;7.53;;;15.40;99.90;;;;;;5050977;28;20515;-70
2023/08/13 04:42:56;;;;;;;19.63;7.03;;;15.50;99.90;;;;;;5050882;28;20381;-70
2023/08/13 04:45:22;;;;;;;19.57;7.30;;;15.50;99.90;;;;;;5050898;28;20432;-70
2023/08/13 04:47:47;;;;;;;14.80;6.83;;;15.50;99.90;;;;;;5051541;28;20711;-71
2023/08/13 04:50:13;;;;;;;12.05;6.72;;;15.60;99.90;;;;;;5060706;28;20415;-71
2023/08/13 04:52:39;;;;;;;12.15;6.85;;;15.60;99.90;;;;;;5038371;28;20474;-70
2023/08/13 04:55:05;;;;;;;16.73;7.10;;;15.70;99.90;;;;;;5051285;28;20438;-71
2023/08/13 04:57:31;;;;;;;15.48;6.93;;;15.70;99.90;;;;;;5050577;28;20401;-71
2023/08/13 04:59:58;;;;;;;12.68;6.57;;;15.80;99.90;;;;;;5050835;28;20532;-71
2023/08/13 05:02:23;;;;;;;13.48;6.55;;;15.90;99.90;;;;;;5050337;28;20385;-70
2023/08/13 05:04:49;;;;;;;14.38;7.10;;;15.90;99.90;;;;;;5050044;28;20416;-70
2023/08/13 05:07:14;;;;;;;17.30;7.00;;;15.90;99.90;;;;;;5050720;28;20871;-72
2023/08/13 05:09:40;;;;;;;14.70;7.17;;;16.00;99.90;;;;;;5050655;28;20390;-71
2023/08/13 05:12:06;;;;;;;13.60;6.80;;;16.10;99.90;;;;;;5050220;28;20393;-70
2023/08/13 05:14:31;;;;;;;16.88;7.30;;;16.10;99.90;;;;;;5032551;28;20397;-70
2023/08/13 05:16:57;;;;;;;17.95;7.20;;;16.20;99.90;;;;;;5032895;28;20411;-71
2023/08/13 05:19:22;;;;;;;14.60;6.90;;;16.20;99.90;;;;;;5050869;28;20382;-72
2023/08/13 05:21:48;;;;;;;12.02;6.90;;;16.40;99.90;;;;;;5050200;28;20862;-71
2023/08/13 05:24:14;;;;;;;16.90;6.85;;;16.50;99.90;;;;;;5050976;28;20389;-71
2023/08/13 05:26:39;;;;;;;9.60;6.10;;;16.50;99.90;;;;;;5050706;28;20826;-69
2023/08/13 05:29:05;;;;;;;13.90;6.73;;;16.70;97.30;;;;;;5050526;28;20488;-70
2023/08/13 05:31:31;;;;;;;10.60;6.15;;;16.80;92.10;;;;;;5050090;28;20385;-71
2023/08/13 05:33:57;;;;;;;14.20;6.30;;;16.80;92.10;;;;;;5050363;28;20381;-73
2023/08/13 05:36:24;;;;;;;13.27;6.70;;;17.00;87.80;;;;;;5050094;28;20392;-72
2023/08/13 05:38:50;;;;;;;13.13;6.00;;;17.10;84.90;;;;;;5032659;28;20421;-70
2023/08/13 05:41:15;;;;;;;12.33;6.10;;;17.10;85.20;;;;;;5050289;28;20848;-71
2023/08/13 05:43:41;;;;;;;13.32;6.00;;;17.20;83.40;;;;;;5050752;28;20381;-73
2023/08/13 05:46:06;;;;;;;15.27;6.40;;;17.30;82.80;;;;;;5052701;28;20861;-70
2023/08/13 05:48:32;;;;;;;15.37;6.03;;;17.30;81.90;;;;;;5053381;28;20389;-69
2023/08/13 05:50:58;;;;;;;18.05;7.65;;;17.30;82.80;;;;;;5060696;28;20514;-72
2023/08/13 05:53:23;;;;;;;14.77;6.10;;;17.20;84.10;;;;;;5058743;28;20929;-73
2023/08/13 05:55:50;;;;;;;13.10;5.50;;;17.30;83.40;;;;;;5050874;28;20393;-74
2023/08/13 05:58:16;;;;;;;18.85;6.00;;;17.50;80.40;;;;;;5050672;28;20448;-72
2023/08/13 06:00:42;;;;;;;13.40;6.30;;;17.40;82.70;;;;;;5058097;28;20397;-71
2023/08/13 06:03:08;;;;;;;19.37;6.50;;;17.40;82.50;;;;;;5064099;28;20398;-73
2023/08/13 06:05:33;;;;;;;17.77;6.50;;;17.50;80.10;;;;;;5038644;28;20491;-72
2023/08/13 06:07:59;;;;;;;17.23;6.95;;;17.50;78.90;;;;;;5051228;28;20754;-71
2023/08/13 06:10:25;;;;;;;11.52;6.60;;;17.50;79.70;;;;;;5050658;28;20801;-69
2023/08/13 06:12:50;;;;;;;19.57;7.17;;;17.60;80.70;;;;;;5032250;28;20784;-72
2023/08/13 06:15:16;;;;;;;11.60;6.40;;;17.70;79.90;;;;;;5050070;28;20742;-72
2023/08/13 06:17:46;;;;;;;15.15;6.10;;;17.80;77.90;;;;;;5053197;28;20433;-70
2023/08/13 06:20:12;;;;;;;16.43;6.90;;;18.00;75.90;;;;;;5053792;28;20750;-71
2023/08/13 06:22:38;;;;;;;11.00;6.20;;;18.10;75.50;;;;;;5053564;28;20396;-72
2023/08/13 06:25:04;;;;;;;23.27;7.30;;;18.20;73.50;;;;;;5053596;28;20381;-70
2023/08/13 06:27:30;;;;;;;13.48;6.40;;;18.40;72.30;;;;;;5053895;28;20381;-71
2023/08/13 06:29:56;;;;;;;11.13;6.33;;;18.60;69.50;;;;;;5053435;28;20792;-71
2023/08/13 06:32:21;;;;;;;15.13;6.53;;;18.60;68.20;;;;;;5053084;28;20909;-71
2023/08/13 06:34:47;;;;;;;14.20;6.60;;;18.70;67.90;;;;;;5053949;28;20385;-72
2023/08/13 06:37:12;;;;;;;11.97;6.50;;;18.70;68.20;;;;;;5054042;28;20471;-71
2023/08/13 06:39:38;;;;;;;15.85;6.65;;;18.80;67.90;;;;;;5035420;28;20408;-71
2023/08/13 06:42:04;;;;;;;9.87;6.20;;;18.90;67.00;;;;;;5053030;28;20381;-71
2023/08/13 06:44:30;;;;;;;10.80;6.43;;;19.00;66.60;;;;;;5035104;28;20766;-72
2023/08/13 06:46:56;;;;;;;19.38;6.55;;;19.10;65.40;;;;;;5053152;28;20382;-70
2023/08/13 06:49:21;;;;;;;11.77;6.88;;;19.10;63.90;;;;;;5052937;28;20377;-71
2023/08/13 06:51:47;;;;;;;12.40;6.60;;;19.10;65.00;;;;;;5053081;28;20870;-71
2023/08/13 06:54:13;;;;;;;14.13;6.73;;;19.00;65.40;;;;;;5053137;28;20409;-71
2023/08/13 06:56:38;;;;;;;15.45;7.40;;;19.00;65.60;;;;;;5052761;28;20394;-71
2023/08/13 06:59:04;;;;;;;11.50;7.37;;;19.00;66.20;;;;;;5053215;28;20386;-71
2023/08/13 07:01:30;;;;;;;19.02;7.10;;;18.90;66.60;;;;;;5053116;28;20496;-71
2023/08/13 07:03:59;;;;;;;13.05;6.65;;;18.80;67.90;;;;;;5053018;28;20382;-70
2023/08/13 07:06:25;;;;;;;14.82;6.88;;;18.90;67.00;;;;;;5053115;28;20382;-70
2023/08/13 07:08:51;;;;;;;15.07;7.18;;;18.90;67.70;;;;;;5053061;28;20374;-71
2023/08/13 07:11:17;;;;;;;13.48;7.00;;;18.80;68.50;;;;;;5058008;28;20435;-71
2023/08/13 07:13:42;;;;;;;15.23;6.85;;;18.70;69.70;;;;;;5049323;28;20385;-73
2023/08/13 07:16:10;;;;;;;12.10;6.45;;;18.70;70.60;;;;;;5055073;28;20382;-72
2023/08/13 07:18:36;;;;;;;11.68;6.85;;;18.80;70.50;;;;;;5062557;28;20440;-72
2023/08/13 07:21:04;;;;;;;16.30;6.80;;;18.90;68.20;;;;;;5052222;28;20747;-70
2023/08/13 07:23:29;;;;;;;16.98;6.63;;;19.00;67.80;;;;;;5034713;28;20492;-72
2023/08/13 07:25:55;;;;;;;13.63;6.10;;;19.10;67.50;;;;;;5053041;28;20446;-73
2023/08/13 07:28:21;;;;;;;17.92;6.07;;;19.10;66.60;;;;;;5052098;28;20396;-71
2023/08/13 07:30:47;;;;;;;13.50;5.80;;;19.30;65.80;;;;;;5052410;28;20381;-71
2023/08/13 07:33:13;;;;;;;14.88;6.40;;;19.60;62.30;;;;;;5052360;28;20428;-72
2023/08/13 07:35:39;;;;;;;16.50;6.30;;;19.70;60.40;;;;;;5034510;28;20413;-71
2023/08/13 07:38:05;;;;;;;14.90;6.20;;;19.90;57.90;;;;;;5052407;28;20883;-70
2023/08/13 07:40:31;;;;;;;24.67;6.07;;;20.00;55.80;;;;;;5052321;28;20484;-69
2023/08/13 07:43:00;;;;;;;9.57;5.30;;;20.10;56.90;;;;;;5052150;28;20381;-70
2023/08/13 07:45:29;;;;;;;10.77;5.80;;;20.20;55.30;;;;;;5052115;28;20381;-71
2023/08/13 07:47:55;;;;;;;12.45;6.30;;;20.50;53.10;;;;;;5034040;28;20428;-70
2023/08/13 07:50:21;;;;;;;12.18;5.40;;;20.70;50.50;;;;;;5051867;28;20464;-70
2023/08/13 07:52:46;;;;;;;13.98;5.20;;;20.90;49.30;;;;;;5052573;28;20405;-71
2023/08/13 07:55:12;;;;;;;10.80;4.90;;;21.10;47.50;;;;;;5052529;28;20392;-70
2023/08/13 07:57:37;;;;;;;14.10;5.13;;;21.20;47.40;;;;;;5051516;28;20433;-69
2023/08/13 08:00:07;;;;;;;8.20;4.00;;;21.40;45.60;;;;;;5051689;28;20969;-70
2023/08/13 08:02:34;;;;;;;11.20;4.75;;;21.70;43.10;;;;;;5051428;28;20801;-70
2023/08/13 08:04:59;;;;;;;7.97;4.30;;;21.90;43.20;;;;;;5051838;28;20383;-71
2023/08/13 08:07:25;;;;;;;12.97;4.67;;;22.10;41.80;;;;;;5051510;28;20469;-72
2023/08/13 08:09:51;;;;;;;12.43;4.03;;;22.30;40.30;;;;;;5051327;28;20389;-70
2023/08/13 08:12:16;;;;;;;8.50;4.07;;;22.40;38.70;;;;;;5050914;28;20878;-71
2023/08/13 08:14:42;;;;;;;12.97;4.27;;;22.60;38.00;;;;;;5051221;28;20481;-70
2023/08/13 08:17:07;;;;;;;9.88;4.00;;;22.80;37.50;;;;;;5051586;28;20890;-70
2023/08/13 08:19:33;;;;;;;15.20;4.20;;;23.00;36.20;;;;;;5051406;28;20468;-72
2023/08/13 08:21:59;;;;;;;16.40;4.35;;;23.00;35.50;;;;;;5051049;28;20370;-72
2023/08/13 08:24:25;;;;;;;7.10;3.72;;;23.10;33.90;;;;;;5051551;28;20381;-74
2023/08/13 08:26:51;;;;;;;9.68;3.50;;;23.20;33.00;;;;;;5051600;28;20958;-71
2023/08/13 08:29:17;;;;;;;6.75;3.35;;;23.30;32.30;;;;;;5052075;28;20397;-72
2023/08/13 08:31:43;;;;;;;8.63;3.80;;;23.50;32.00;;;;;;5051597;28;20381;-73
2023/08/13 08:34:08;;;;;;;9.87;3.43;;;23.60;31.90;;;;;;5051731;28;20394;-71
2023/08/13 08:36:34;;;;;;;10.40;3.55;;;23.90;30.70;;;;;;5033612;28;20476;-70
2023/08/13 08:38:59;;;;;;;9.37;3.13;;;23.80;29.70;;;;;;5051152;28;20740;-71
2023/08/13 08:41:31;;;;;;;10.03;3.57;;;23.70;29.80;;;;;;5051930;28;20385;-72
2023/08/13 08:43:58;;;;;;;12.73;3.60;;;24.10;29.40;;;;;;5052027;28;20441;-73
2023/08/13 08:46:27;;;;;;;8.10;3.70;;;24.00;29.20;;;;;;5051590;28;20381;-72
2023/08/13 08:48:53;;;;;;;7.85;3.03;;;23.50;30.00;;;;;;5034489;28;20735;-71
2023/08/13 08:51:20;;;;;;;9.18;3.40;;;23.50;31.00;;;;;;5051810;28;20382;-72
2023/08/13 08:53:47;;;;;;;12.73;3.70;;;23.50;30.80;;;;;;5051734;28;20393;-70
2023/08/13 08:56:12;;;;;;;10.00;3.85;;;23.40;31.00;;;;;;5051376;28;20385;-69
2023/08/13 08:58:39;;;;;;;8.70;3.38;;;23.30;31.40;;;;;;5050889;28;20556;-72
2023/08/13 09:01:05;;;;;;;13.00;3.55;;;23.40;31.00;;;;;;5052203;28;20428;-72
2023/08/13 09:03:31;;;;;;;10.50;3.93;;;23.50;31.40;;;;;;5051718;28;20888;-70
2023/08/13 09:05:56;;;;;;;8.75;3.33;;;23.70;31.10;;;;;;5051153;28;20396;-70
2023/08/13 09:08:22;;;;;;;9.93;3.40;;;24.10;30.40;;;;;;5053080;28;20384;-71
2023/08/13 09:10:48;;;;;;;12.15;3.50;;;24.00;29.00;;;;;;5063898;23;20453;-75
2023/08/13 09:13:13;;;;;;;9.80;3.20;;;24.10;28.90;;;;;;5051291;28;20393;-74
2023/08/13 09:15:49;;;;;;;11.05;3.60;;;24.00;28.80;;;;;;5051885;28;20370;-74
2023/08/13 09:18:15;;;;;;;9.30;3.20;;;24.00;28.70;;;;;;5051562;28;20488;-75
2023/08/13 09:20:45;;;;;;;7.85;3.10;;;24.00;28.00;;;;;;5051189;28;20385;-75
2023/08/13 09:23:18;;;;;;;10.07;2.85;;;24.20;26.20;;;;;;5050523;28;20452;-74
2023/08/13 09:25:44;;;;;;;6.50;2.53;;;24.20;24.80;;;;;;5033463;28;20874;-75
2023/08/13 09:28:12;;;;;;;8.10;2.80;;;24.30;24.60;;;;;;5051175;28;20381;-74
2023/08/13 09:30:39;;;;;;;7.00;2.50;;;24.50;24.90;;;;;;5051023;28;20399;-75
2023/08/13 09:33:05;;;;;;;6.85;2.70;;;24.90;22.50;;;;;;5052431;28;20790;-73
2023/08/13 09:35:31;;;;;;;7.80;2.50;;;25.00;21.70;;;;;;5052899;28;20428;-73
2023/08/13 09:37:56;;;;;;;10.13;3.40;;;25.10;22.70;;;;;;5051603;28;20446;-73
2023/08/13 09:40:22;;;;;;;6.65;2.85;;;25.20;20.70;;;;;;5052989;28;20476;-73
2023/08/13 09:42:52;;;;;;;7.00;2.17;;;25.20;21.20;;;;;;5034790;28;20449;-73
2023/08/13 09:45:19;;;;;;;7.30;3.20;;;25.10;21.80;;;;;;5050710;28;20416;-75
2023/08/13 09:47:47;;;;;;;6.18;2.67;;;25.20;21.30;;;;;;5050402;28;20438;-74
2023/08/13 09:50:15;;;;;;;9.90;2.60;;;25.40;20.20;;;;;;5051328;28;20484;-74
2023/08/13 09:52:45;;;;;;;7.30;2.70;;;25.40;21.50;;;;;;5053560;28;20435;-74
2023/08/13 09:55:15;;;;;;;6.95;3.00;;;25.50;20.00;;;;;;5054383;28;20426;-74
2023/08/13 09:57:43;;;;;;;8.80;3.10;;;26.00;20.30;;;;;;5054493;28;20420;-73
2023/08/13 10:00:11;;;;;;;8.15;3.38;;;26.10;20.20;;;;;;5036117;28;20523;-74
2023/08/13 10:02:39;;;;;;;10.43;2.75;;;25.90;19.40;;;;;;5053572;28;20402;-74
2023/08/13 10:05:05;;;;;;;11.02;3.17;;;25.70;19.80;;;;;;5053891;28;20821;-74
2023/08/13 10:07:32;;;;;;;11.38;3.30;;;25.60;20.00;;;;;;5053848;28;20762;-75
2023/08/13 10:09:59;;;;;;;8.50;2.90;;;25.40;20.30;;;;;;5053755;28;20428;-75
2023/08/13 10:12:25;;;;;;;8.98;2.90;;;25.40;20.90;;;;;;5053517;28;20401;-73
2023/08/13 10:14:51;;;;;;;8.07;2.70;;;25.40;21.60;;;;;;5053523;28;20387;-74
2023/08/13 10:17:18;;;;;;;5.05;2.63;;;25.40;21.10;;;;;;5053624;28;20557;-73
2023/08/13 10:19:50;;;;;;;8.50;2.40;;;25.50;21.40;;;;;;5053587;28;20389;-74
2023/08/13 10:22:39;;;;;;;7.30;2.70;;;25.60;21.00;;;;;;5053342;28;20783;-74
2023/08/13 10:25:07;;;;;;;10.30;2.80;;;25.50;19.50;;;;;;5035789;28;20420;-75
2023/08/13 10:27:37;;;;;;;9.35;3.00;;;25.20;20.20;;;;;;5053964;28;20896;-74
2023/08/13 10:30:04;;;;;;;9.68;2.95;;;25.40;22.10;;;;;;5053412;28;20381;-74
2023/08/13 10:32:29;;;;;;;7.20;2.80;;;25.60;20.50;;;;;;5053232;28;20391;-74
2023/08/13 10:34:56;;;;;;;11.47;2.90;;;25.70;20.40;;;;;;5035952;28;20417;-74
2023/08/13 10:37:23;;;;;;;5.53;3.00;;;25.80;19.50;;;;;;5053100;28;20920;-74
2023/08/13 10:39:55;;;;;;;9.50;2.90;;;25.80;20.00;;;;;;5053340;28;20873;-74
2023/08/13 10:42:27;;;;;;;7.70;3.00;;;26.10;19.20;;;;;;5053372;28;20856;-74
2023/08/13 10:44:53;;;;;;;7.97;3.55;;;26.00;19.50;;;;;;5035715;28;20393;-75
2023/08/13 10:47:22;;;;;;;6.00;2.80;;;26.10;19.70;;;;;;5054167;28;20764;-74
2023/08/13 10:49:48;;;;;;;9.27;3.20;;;26.50;18.90;;;;;;5054201;28;20405;-74
2023/08/13 10:52:14;;;;;;;11.90;3.30;;;26.60;18.00;;;;;;5054501;28;20741;-74
2023/08/13 10:54:40;;;;;;;7.20;2.40;;;26.90;17.40;;;;;;5053592;28;20385;-74
2023/08/13 10:57:05;;;;;;;8.30;3.00;;;27.00;18.10;;;;;;5052628;28;20484;-74
2023/08/13 10:59:37;;;;;;;7.40;2.80;;;27.30;17.80;;;;;;5052667;28;20378;-75
2023/08/13 11:02:12;;;;;;;11.82;2.60;;;27.30;16.50;;;;;;5033697;28;20382;-74
2023/08/13 11:04:42;;;;;;;7.25;2.70;;;27.40;16.20;;;;;;5053272;28;20380;-74
2023/08/13 11:07:11;;;;;;;9.07;3.20;;;27.30;16.20;;;;;;5054493;28;20386;-75
2023/08/13 11:09:38;;;;;;;8.77;2.88;;;27.60;17.00;;;;;;5053133;28;20373;-74
2023/08/13 11:12:05;;;;;;;10.95;3.10;;;27.60;16.40;;;;;;5052999;28;20465;-74
2023/08/13 11:14:31;;;;;;;10.13;3.10;;;27.50;15.30;;;;;;5034743;28;20560;-74
2023/08/13 11:16:57;;;;;;;13.60;3.45;;;27.40;16.40;;;;;;5051889;28;20440;-73
2023/08/13 11:19:22;;;;;;;8.63;3.40;;;27.40;16.20;;;;;;5052117;28;20397;-74
2023/08/13 11:21:49;;;;;;;9.95;3.15;;;27.40;16.60;;;;;;5051489;28;20386;-74
2023/08/13 11:24:15;;;;;;;7.05;3.47;;;27.30;16.80;;;;;;5052237;28;20393;-74
2023/08/13 11:26:40;;;;;;;8.93;3.10;;;27.30;17.30;;;;;;5052684;28;20741;-74
2023/08/13 11:29:06;;;;;;;8.13;3.50;;;27.20;16.40;;;;;;5052533;28;20559;-74
2023/08/13 11:31:35;;;;;;;7.50;3.60;;;26.90;17.30;;;;;;5051520;28;20389;-74
2023/08/13 11:34:01;;;;;;;9.10;3.17;;;26.80;17.80;;;;;;5034092;28;20758;-74
2023/08/13 11:36:27;;;;;;;7.43;3.30;;;26.80;18.10;;;;;;5051842;28;20382;-75
2023/08/13 11:38:52;;;;;;;10.60;3.33;;;26.80;17.60;;;;;;5051922;28;20829;-75
2023/08/13 11:41:20;;;;;;;9.67;2.90;;;26.90;17.50;;;;;;5051579;28;20425;-74
2023/08/13 11:43:55;;;;;;;6.32;2.90;;;26.90;16.60;;;;;;5052054;28;20443;-75
2023/08/13 11:46:21;;;;;;;9.48;3.38;;;26.80;17.10;;;;;;5051816;28;20906;-74
2023/08/13 11:48:54;;;;;;;8.68;3.35;;;26.80;17.40;;;;;;5051905;28;20381;-73
2023/08/13 11:51:24;;;;;;;7.63;3.40;;;26.50;17.40;;;;;;5052021;28;20381;-73
2023/08/13 11:53:50;;;;;;;15.25;4.20;;;26.60;17.60;;;;;;5052419;28;20404;-75
2023/08/13 11:56:17;;;;;;;8.32;3.70;;;26.60;18.00;;;;;;5052450;28;20385;-75
2023/08/13 11:58:43;;;;;;;10.38;3.60;;;26.70;17.10;;;;;;5052391;28;20416;-74
2023/08/13 12:01:11;;;;;;;10.68;3.10;;;26.80;17.40;;;;;;5052331;28;20382;-74
2023/08/13 12:03:42;;;;;;;11.82;3.75;;;26.80;16.90;;;;;;5052221;28;20982;-75
2023/08/13 12:06:09;;;;;;;7.30;2.80;;;27.00;17.50;;;;;;5051679;28;20633;-75
2023/08/13 12:08:34;;;;;;;10.40;3.42;;;27.00;16.90;;;;;;5052196;28;20392;-75
2023/08/13 12:11:01;;;;;;;11.43;3.60;;;27.10;17.20;;;;;;5051640;28;20389;-75
2023/08/13 12:13:30;;;;;;;10.55;3.28;;;27.00;16.90;;;;;;5051346;28;20656;-75
2023/08/13 12:15:55;;;;;;;10.25;3.03;;;27.10;17.20;;;;;;5051748;28;20465;-74
2023/08/13 12:18:21;;;;;;;12.63;3.20;;;27.10;17.50;;;;;;5051615;28;20897;-75
2023/08/13 12:20:47;;;;;;;8.55;3.30;;;26.90;16.60;;;;;;5052479;28;20400;-76
2023/08/13 12:23:12;;;;;;;8.13;3.17;;;26.70;16.60;;;;;;5051246;28;20374;-74
2023/08/13 12:25:38;;;;;;;8.13;3.20;;;26.80;16.70;;;;;;5052484;28;20711;-74
2023/08/13 12:28:05;;;;;;;9.18;3.22;;;27.20;17.10;;;;;;5053430;28;20431;-74
2023/08/13 12:30:30;;;;;;;8.90;3.30;;;27.40;17.20;;;;;;5053698;28;20420;-74
2023/08/13 12:32:56;;;;;;;9.43;3.08;;;27.40;16.60;;;;;;5052215;28;20414;-74
2023/08/13 12:35:22;;;;;;;7.20;2.90;;;27.30;16.80;;;;;;5052437;28;20754;-75
2023/08/13 12:37:48;;;;;;;8.27;3.17;;;27.30;16.90;;;;;;5050982;28;20483;-75